Date,TemperatureHighF,TemperatureAvgF,TemperatureLowF,DewpointHighF,DewpointAvgF,DewpointLowF,HumidityHigh,HumidityAvg,HumidityLow,PressureMaxIn,PressureMinIn,WindSpeedMaxMPH,WindSpeedAvgMPH,GustSpeedMaxMPH,PrecipitationSumIn
2013-11-1,59.8,47.6,39.2,43.4,38.3,34.1,87,72,39,29.98,29.59,30,10,30,0.00
2013-11-2,58.8,45.7,34.8,39.2,34.5,31.6,88,67,37,30.18,29.98,16,6,16,0.00
2013-11-3,58.4,48.8,37.7,40.0,35.6,32.1,81,62,43,30.08,29.73,33,13,33,0.00
2013-11-4,57.5,50.7,40.9,46.0,40.7,35.8,84,69,49,30.09,29.75,17,6,17,0.00
2013-11-5,49.7,45.1,35.1,48.9,41.9,33.4,97,89,75,30.09,29.75,25,9,25,0.00
2013-11-6,44.3,36.9,30.9,35.4,32.6,29.0,95,85,65,30.29,30.02,25,8,25,0.00
2013-11-7,50.3,37.1,27.5,33.0,27.3,23.3,97,71,35,30.42,30.28,21,5,21,0.00
2013-11-8,65.7,51.5,32.2,38.4,34.7,25.8,80,55,31,30.29,29.73,31,8,31,0.00
2013-11-9,61.9,48.6,37.0,36.8,34.7,32.3,89,61,34,30.32,29.90,18,5,18,0.00
2013-11-10,54.5,42.2,26.5,37.1,31.6,24.9,96,69,38,30.40,30.15,15,3,15,0.00
2013-11-11,45.7,35.4,19.7,44.3,28.2,11.6,96,75,55,30.77,30.09,28,12,28,0.00
2013-11-12,35.1,21.5,10.3,12.9,9.8,6.7,88,63,31,30.93,30.63,13,3,13,0.00
2013-11-13,54.1,36.2,20.5,28.4,20.9,11.3,73,55,36,30.65,30.03,21,8,21,0.00
2013-11-14,54.2,42.6,30.2,32.7,26.3,20.0,91,54,37,30.02,29.87,15,5,15,0.00
2013-11-15,57.4,41.1,23.2,42.7,33.1,21.6,96,75,46,29.90,29.59,21,6,21,0.00
2013-11-16,67.1,54.5,45.6,53.6,41.0,28.4,93,65,28,29.59,29.29,35,9,35,0.00
2013-11-17,57.7,49.9,36.5,39.4,35.0,31.5,85,58,42,30.05,29.22,35,10,35,0.00
2013-11-18,58.8,41.4,28.4,33.1,27.0,23.3,89,61,28,30.26,30.05,16,4,16,0.00
2013-11-19,62.1,47.9,34.1,33.9,27.7,23.8,72,48,26,30.18,29.86,29,11,29,0.00
2013-11-20,58.6,48.5,38.1,38.1,34.1,27.6,88,59,42,29.89,29.71,22,11,22,0.00
2013-11-21,38.0,29.2,20.9,34.8,25.2,17.1,93,85,78,30.57,29.89,31,15,31,0.00
2013-11-22,25.8,19.2,14.1,17.4,12.2,9.0,86,74,55,30.75,30.57,21,8,21,0.00
2013-11-23,22.2,17.0,9.9,14.1,7.6,3.2,82,67,46,30.93,30.68,18,6,18,0.00
2013-11-24,30.8,19.8,8.2,15.3,10.1,4.5,85,67,48,30.82,30.28,18,7,18,0.00
2013-11-25,42.0,31.7,25.2,29.2,21.9,13.2,82,67,57,30.28,30.14,16,5,16,0.00
2013-11-26,33.3,25.5,14.0,24.7,15.0,6.7,86,66,36,30.46,30.21,30,11,30,0.00
2013-11-27,34.0,22.4,8.8,18.2,11.3,5.2,86,64,41,30.46,30.09,21,6,21,0.00
2013-11-28,33.6,26.1,14.3,21.0,17.2,10.7,87,70,51,30.51,30.11,22,7,22,0.00
2013-11-29,49.9,30.1,12.2,28.7,20.8,9.4,91,70,43,30.51,30.17,18,6,18,0.00
2013-11-30,59.4,38.4,22.5,33.6,26.7,19.8,92,65,33,30.17,30.05,10,2,10,0.00